Terminal Aerodrome Forecast
Issued by NWS

Home | Current Version | Previous Version | Text Only | Print | Product List | Glossary On
Versions: 1 2 3 4 5 6 7 8 9 10 11 12 13 14
319
FTUS41 KPBZ 271735
TAFFKL
TAF
KFKL 271735Z 2718/2818 VRB03KT P6SM SCT030
     FM280600 00000KT 1SM BR SCT150
     FM281000 00000KT 1/2SM FG SCT008
     FM281300 00000KT P6SM SCT130=

USA.gov is the U.S. government's official web portal to all federal, state and local government web resources and services.